createdAt,value
2023-04-19T00:01:55.065Z,102031.69
2023-04-19T00:04:21.756Z,102080.41
2023-04-19T00:06:48.447Z,102088.63
2023-04-19T00:09:14.654Z,102105.75
2023-04-19T00:11:40.857Z,102116.44
2023-04-19T00:14:07.069Z,102143.25
2023-04-19T00:16:33.287Z,102126.97
2023-04-19T00:18:59.534Z,102121.78
2023-04-19T00:21:25.762Z,102120.41
2023-04-19T00:23:52.048Z,102107.63
2023-04-19T00:26:18.264Z,102105.47
2023-04-19T00:28:44.486Z,102133.50
2023-04-19T00:31:10.728Z,102147.03
2023-04-19T00:33:36.955Z,102151.94
2023-04-19T00:36:03.167Z,102167.88
2023-04-19T00:38:29.376Z,102160.44
2023-04-19T00:40:55.565Z,102179.97
2023-04-19T00:43:21.790Z,102188.22
2023-04-19T00:45:48.137Z,102202.78
2023-04-19T00:48:14.383Z,102248.56
2023-04-19T00:50:40.885Z,102294.22
2023-04-19T00:53:07.462Z,102312.16
2023-04-19T00:55:33.662Z,102313.25
2023-04-19T00:57:59.953Z,102316.34
2023-04-19T01:00:26.222Z,102312.66
2023-04-19T01:02:52.504Z,102306.03
2023-04-19T01:05:18.997Z,102312.97
2023-04-19T01:07:45.211Z,102342.97
2023-04-19T01:10:11.428Z,102370.84
2023-04-19T01:12:37.647Z,102374.00
2023-04-19T01:15:03.935Z,102375.94
2023-04-19T01:17:31.452Z,102375.03
2023-04-19T01:20:03.993Z,102388.50
2023-04-19T01:22:30.203Z,102405.34
2023-04-19T01:24:56.429Z,102408.81
2023-04-19T01:27:22.625Z,102393.25
2023-04-19T01:29:48.844Z,102366.50
2023-04-19T01:32:15.135Z,102361.19
2023-04-19T01:34:41.358Z,102335.53
2023-04-19T01:37:07.566Z,102332.50
2023-04-19T01:39:33.771Z,102319.41
2023-04-19T01:41:59.960Z,102300.72
2023-04-19T01:44:26.163Z,102297.59
2023-04-19T01:46:52.407Z,102304.28
2023-04-19T01:49:18.650Z,102330.44
2023-04-19T01:51:45.131Z,102347.13
2023-04-19T01:54:11.333Z,102356.38
2023-04-19T01:56:37.542Z,102369.97
2023-04-19T01:59:03.823Z,102371.03
2023-04-19T02:01:30.009Z,102365.91
2023-04-19T02:03:56.916Z,102349.34
2023-04-19T02:06:23.200Z,102323.69
2023-04-19T02:08:49.408Z,102299.53
2023-04-19T02:11:15.643Z,102261.84
2023-04-19T02:13:41.917Z,102258.59
2023-04-19T02:16:08.253Z,102240.25
2023-04-19T02:18:34.518Z,102219.03
2023-04-19T02:21:00.732Z,102209.66
2023-04-19T02:23:26.981Z,102210.28
2023-04-19T02:25:53.183Z,102230.50
2023-04-19T02:28:19.391Z,102229.38
2023-04-19T02:30:45.590Z,102229.91
2023-04-19T02:33:11.804Z,102230.72
2023-04-19T02:35:38.103Z,102222.66
2023-04-19T02:38:04.302Z,102237.41
2023-04-19T02:40:30.707Z,102220.44
2023-04-19T02:42:56.915Z,102212.22
2023-04-19T02:45:23.119Z,102203.16
2023-04-19T02:47:49.383Z,102203.31
2023-04-19T02:50:16.080Z,102234.44
2023-04-19T02:52:42.294Z,102258.84
2023-04-19T02:55:08.701Z,102295.81
2023-04-19T02:57:34.908Z,102307.66
2023-04-19T03:00:01.136Z,102304.47
2023-04-19T03:02:27.497Z,102296.28
2023-04-19T03:04:53.785Z,102287.72
2023-04-19T03:07:19.981Z,102283.03
2023-04-19T03:09:46.190Z,102279.84
2023-04-19T03:12:12.391Z,102277.41
2023-04-19T03:14:38.593Z,102276.41
2023-04-19T03:17:04.787Z,102275.94
2023-04-19T03:19:30.996Z,102268.81
2023-04-19T03:21:57.190Z,102249.09
2023-04-19T03:24:34.370Z,102259.44
2023-04-19T03:27:02.625Z,102254.25
2023-04-19T03:29:28.834Z,102236.13
2023-04-19T03:31:55.041Z,102248.81
2023-04-19T03:34:21.264Z,102258.84
2023-04-19T03:36:47.462Z,102265.84
2023-04-19T03:39:13.657Z,102264.59
2023-04-19T03:41:39.884Z,102240.50
2023-04-19T03:44:06.091Z,102246.13
2023-04-19T03:46:32.342Z,102246.56
2023-04-19T03:48:58.777Z,102262.72
2023-04-19T03:51:24.987Z,102268.59
2023-04-19T03:53:51.213Z,102255.03
2023-04-19T03:56:17.445Z,102238.56
2023-04-19T03:58:43.675Z,102238.56
2023-04-19T04:01:17.246Z,102216.78
2023-04-19T04:03:43.754Z,102190.44
2023-04-19T04:06:10.077Z,102181.59
2023-04-19T04:08:36.293Z,102163.16
2023-04-19T04:11:02.711Z,102139.19
2023-04-19T04:13:28.921Z,102156.16
2023-04-19T04:15:55.168Z,102158.25
2023-04-19T04:18:21.403Z,102170.22
2023-04-19T04:20:47.648Z,102165.06
2023-04-19T04:23:13.866Z,102146.81
2023-04-19T04:25:40.167Z,102130.63
2023-04-19T04:28:06.386Z,102119.38
2023-04-19T04:30:32.864Z,102115.16
2023-04-19T04:32:59.186Z,102097.66
2023-04-19T04:35:25.448Z,102088.13
2023-04-19T04:37:51.754Z,102093.81
2023-04-19T04:40:17.963Z,102063.38
2023-04-19T04:42:44.174Z,101998.97
2023-04-19T04:45:10.385Z,101892.94
2023-04-19T04:47:36.597Z,101841.03
2023-04-19T04:50:03.162Z,101791.59
2023-04-19T04:52:29.368Z,101735.31
2023-04-19T04:54:55.642Z,101691.41
2023-04-19T04:57:21.844Z,101533.09
2023-04-19T04:59:48.064Z,101505.13
2023-04-19T05:02:14.711Z,101405.03
2023-04-19T05:04:41.030Z,101257.59
2023-04-19T05:07:07.417Z,101185.88
2023-04-19T05:09:33.630Z,101132.34
2023-04-19T05:11:59.850Z,101118.13
2023-04-19T05:14:26.056Z,101130.06
2023-04-19T05:16:52.286Z,101085.88
2023-04-19T05:19:18.523Z,101074.31
2023-04-19T05:21:44.729Z,100902.78
2023-04-19T05:24:10.949Z,100804.50
2023-04-19T05:26:37.156Z,100641.25
2023-04-19T05:29:03.373Z,100758.25
2023-04-19T05:31:29.605Z,100865.72
2023-04-19T05:33:55.889Z,100881.59
2023-04-19T05:36:22.095Z,100880.78
2023-04-19T05:38:48.333Z,100838.34
2023-04-19T05:41:15.116Z,100955.53
2023-04-19T05:43:41.324Z,101124.56
2023-04-19T05:46:07.565Z,101119.19
2023-04-19T05:48:33.796Z,101121.50
2023-04-19T05:51:00.025Z,101126.56
2023-04-19T05:53:26.247Z,101040.38
2023-04-19T05:55:52.462Z,100881.16
2023-04-19T05:58:18.679Z,100803.81
2023-04-19T06:00:45.021Z,100765.44
2023-04-19T06:03:11.345Z,100767.34
2023-04-19T06:05:37.677Z,100751.47
2023-04-19T06:08:03.964Z,100696.75
2023-04-19T06:10:40.416Z,100657.75
2023-04-19T06:13:15.138Z,100716.38
2023-04-19T06:15:41.384Z,100619.44
2023-04-19T06:18:07.633Z,100610.53
2023-04-19T06:20:33.904Z,100550.66
2023-04-19T06:23:00.113Z,100676.88
2023-04-19T06:25:26.339Z,100670.38
2023-04-19T06:27:52.547Z,100748.72
2023-04-19T06:30:21.791Z,100740.44
2023-04-19T06:32:48.077Z,100735.22
2023-04-19T06:35:14.551Z,100714.75
2023-04-19T06:37:40.768Z,100705.81
2023-04-19T06:40:07.515Z,100705.56
2023-04-19T06:42:39.795Z,100762.19
2023-04-19T06:45:06.398Z,100721.25
2023-04-19T06:47:34.997Z,100737.69
2023-04-19T06:50:01.895Z,100645.50
2023-04-19T06:52:28.647Z,100659.25
2023-04-19T06:54:54.867Z,100645.84
2023-04-19T06:57:21.072Z,100656.56
2023-04-19T06:59:47.317Z,100592.91
2023-04-19T07:02:13.754Z,100632.03
2023-04-19T07:04:40.265Z,100660.94
2023-04-19T07:07:06.548Z,100634.16
2023-04-19T07:09:32.756Z,100522.72
2023-04-19T07:11:58.959Z,100505.28
2023-04-19T07:14:25.476Z,100568.84
2023-04-19T07:16:52.719Z,100485.94
2023-04-19T07:19:19.054Z,100393.75
2023-04-19T07:21:45.256Z,100345.03
2023-04-19T07:24:11.477Z,100458.66
2023-04-19T07:26:37.689Z,100508.06
2023-04-19T07:29:03.932Z,100446.88
2023-04-19T07:31:30.133Z,100402.59
2023-04-19T07:33:56.370Z,100499.25
2023-04-19T07:36:22.589Z,100622.19
2023-04-19T07:38:48.854Z,100468.44
2023-04-19T07:41:15.159Z,100406.78
2023-04-19T07:43:41.381Z,100429.34
2023-04-19T07:46:13.995Z,100484.22
2023-04-19T07:48:40.229Z,100410.97
2023-04-19T07:51:13.023Z,100428.63
2023-04-19T07:53:39.400Z,100421.53
2023-04-19T07:56:06.460Z,100468.72
2023-04-19T07:58:32.721Z,100425.41
2023-04-19T08:00:58.967Z,100248.47
2023-04-19T08:03:25.454Z,100315.53
2023-04-19T08:05:51.928Z,100362.41
2023-04-19T08:08:18.216Z,100246.63
2023-04-19T08:10:44.446Z,99912.31
2023-04-19T08:13:10.685Z,100063.09
2023-04-19T08:16:20.434Z,100118.25
2023-04-19T08:18:23.124Z,100196.44
2023-04-19T08:20:49.339Z,100072.91
2023-04-19T08:23:22.789Z,100060.13
2023-04-19T08:25:52.182Z,100081.03
2023-04-19T08:28:18.483Z,100100.66
2023-04-19T08:30:44.722Z,100099.91
2023-04-19T08:33:11.048Z,99991.31
2023-04-19T08:35:37.847Z,100013.13
2023-04-19T08:38:04.437Z,99987.56
2023-04-19T08:40:30.906Z,99916.31
2023-04-19T08:42:57.382Z,99804.06
2023-04-19T08:45:28.179Z,99765.22
2023-04-19T08:48:00.962Z,99820.75
2023-04-19T08:50:33.160Z,99888.09
2023-04-19T08:53:12.342Z,99874.78
2023-04-19T08:56:04.297Z,99806.16
2023-04-19T09:01:03.817Z,99949.53
2023-04-19T09:03:30.213Z,99811.38
2023-04-19T09:05:56.711Z,99752.41
2023-04-19T09:08:23.857Z,99678.56
2023-04-19T09:10:59.774Z,99871.16
2023-04-19T09:13:26.106Z,99881.59
2023-04-19T09:15:52.428Z,99672.00
2023-04-19T09:18:18.668Z,99780.31
2023-04-19T09:20:44.950Z,99913.22
2023-04-19T09:23:11.925Z,99797.84
2023-04-19T09:25:59.258Z,99754.97
2023-04-19T09:28:24.656Z,99691.09
2023-04-19T09:31:02.298Z,99654.81
2023-04-19T09:33:37.330Z,99705.38
2023-04-19T09:36:03.643Z,99785.28
2023-04-19T09:38:29.853Z,99715.56
2023-04-19T09:41:05.801Z,99742.16
2023-04-19T09:43:57.679Z,99534.09
2023-04-19T09:46:30.865Z,99553.38
2023-04-19T09:49:17.176Z,99631.13
2023-04-19T09:51:47.788Z,99731.94
2023-04-19T09:54:14.374Z,99841.03
2023-04-19T09:56:40.607Z,99769.06
2023-04-19T09:59:17.523Z,99768.94
2023-04-19T10:01:56.565Z,99718.91
2023-04-19T10:04:33.334Z,99745.03
2023-04-19T10:07:29.174Z,99728.56
2023-04-19T10:09:59.937Z,99777.06
2023-04-19T10:12:52.281Z,99603.22
2023-04-19T10:15:17.710Z,99650.75
2023-04-19T10:17:43.952Z,99807.59
2023-04-19T10:20:10.866Z,99645.63
2023-04-19T10:22:37.084Z,99598.31
2023-04-19T10:25:13.197Z,99259.59
2023-04-19T10:27:40.032Z,99055.03
2023-04-19T10:30:07.616Z,99211.66
2023-04-19T10:32:37.722Z,99149.94
2023-04-19T10:35:07.564Z,99371.69
2023-04-19T10:37:33.789Z,99201.81
2023-04-19T10:40:00.012Z,99275.13
2023-04-19T10:42:42.272Z,99284.19
2023-04-19T10:45:27.328Z,99309.19
2023-04-19T10:47:53.625Z,99405.78
2023-04-19T10:50:19.886Z,99529.56
2023-04-19T10:52:46.095Z,99319.34
2023-04-19T10:55:14.992Z,99234.34
2023-04-19T10:57:59.988Z,98997.47
2023-04-19T11:00:26.339Z,99345.38
2023-04-19T11:02:52.721Z,99383.63
2023-04-19T11:05:20.389Z,98766.06
2023-04-19T11:07:46.660Z,98654.25
2023-04-19T11:10:13.072Z,98353.13
2023-04-19T11:12:41.932Z,98285.44
2023-04-19T11:15:08.343Z,98544.31
2023-04-19T11:17:34.588Z,98409.66
2023-04-19T11:20:01.757Z,98407.81
2023-04-19T11:22:54.140Z,98226.09
2023-04-19T11:25:21.267Z,98427.16
2023-04-19T11:27:48.298Z,98324.63
2023-04-19T11:30:15.254Z,98244.69
2023-04-19T11:32:45.158Z,98484.91
2023-04-19T11:35:11.397Z,98515.53
2023-04-19T11:37:37.882Z,98349.16
2023-04-19T11:40:05.078Z,98557.13
2023-04-19T11:42:31.700Z,98380.25
2023-04-19T11:44:57.931Z,98650.19
2023-04-19T11:47:24.222Z,98577.03
2023-04-19T11:49:50.515Z,98733.97
2023-04-19T11:52:23.473Z,98604.25
2023-04-19T11:54:50.374Z,98568.75
2023-04-19T11:57:26.125Z,98795.25
2023-04-19T12:00:02.247Z,98635.69
2023-04-19T12:02:28.523Z,98797.97
2023-04-19T12:04:54.868Z,98912.25
2023-04-19T12:07:21.138Z,98758.44
2023-04-19T12:09:48.598Z,98903.72
2023-04-19T12:12:19.530Z,98867.75
2023-04-19T12:14:51.594Z,98965.44
2023-04-19T12:17:17.826Z,98653.13
2023-04-19T12:19:47.146Z,98574.97
2023-04-19T12:22:14.025Z,98643.38
2023-04-19T12:24:40.253Z,98719.03
2023-04-19T12:27:06.471Z,98409.28
2023-04-19T12:29:33.620Z,98582.38
2023-04-19T12:32:00.095Z,98535.25
2023-04-19T12:34:26.346Z,98325.56
2023-04-19T12:36:52.560Z,98308.38
2023-04-19T12:39:18.810Z,98331.78
2023-04-19T12:41:45.037Z,98311.63
2023-04-19T12:44:11.233Z,98419.31
2023-04-19T12:46:37.563Z,98741.31
2023-04-19T12:49:03.862Z,98802.75
2023-04-19T12:51:30.140Z,98889.00
2023-04-19T12:53:56.345Z,98938.81
2023-04-19T12:56:22.555Z,98458.88
2023-04-19T12:58:48.765Z,98644.78
2023-04-19T13:01:15.022Z,98466.41
2023-04-19T13:03:41.414Z,98385.31
2023-04-19T13:06:07.774Z,98478.28
2023-04-19T13:08:44.743Z,98280.09
2023-04-19T13:11:13.503Z,98274.97
2023-04-19T13:13:39.712Z,98691.69
2023-04-19T13:16:06.040Z,98806.44
2023-04-19T13:18:32.283Z,98343.47
2023-04-19T13:20:58.493Z,98367.94
2023-04-19T13:23:24.697Z,98446.41
2023-04-19T13:25:50.918Z,98485.34
2023-04-19T13:28:17.127Z,98267.97
2023-04-19T13:30:43.340Z,98302.25
2023-04-19T13:33:09.625Z,98477.19
2023-04-19T13:35:35.867Z,98755.78
2023-04-19T13:38:02.070Z,98462.84
2023-04-19T13:40:28.283Z,98645.22
2023-04-19T13:42:54.498Z,98270.41
2023-04-19T13:45:20.720Z,98162.06
2023-04-19T13:47:46.937Z,98408.41
2023-04-19T13:50:13.276Z,98188.34
2023-04-19T13:52:39.549Z,97990.22
2023-04-19T13:55:05.806Z,98073.66
2023-04-19T13:57:32.046Z,98207.81
2023-04-19T13:59:58.268Z,98114.22
2023-04-19T14:02:24.714Z,98221.38
2023-04-19T14:04:51.079Z,98211.03
2023-04-19T14:07:17.434Z,98424.06
2023-04-19T14:09:43.693Z,98452.41
2023-04-19T14:12:09.914Z,98381.44
2023-04-19T14:14:36.133Z,98619.09
2023-04-19T14:17:02.334Z,99053.72
2023-04-19T14:19:28.525Z,98358.00
2023-04-19T14:21:55.229Z,98479.44
2023-04-19T14:24:21.457Z,98605.31
2023-04-19T14:26:54.455Z,98630.47
2023-04-19T14:29:33.357Z,98453.28
2023-04-19T14:32:05.054Z,98381.22
2023-04-19T14:34:36.771Z,98422.91
2023-04-19T14:37:02.993Z,98362.72
2023-04-19T14:39:29.206Z,98145.88
2023-04-19T14:41:57.114Z,98116.28
2023-04-19T14:44:23.526Z,98215.72
2023-04-19T14:46:49.744Z,98116.56
2023-04-19T14:49:16.151Z,98075.41
2023-04-19T14:51:42.988Z,98190.81
2023-04-19T14:54:09.179Z,98199.16
2023-04-19T14:56:37.366Z,98182.22
2023-04-19T14:59:04.765Z,98122.78
2023-04-19T15:01:31.050Z,98235.72
2023-04-19T15:03:57.654Z,98295.34
2023-04-19T15:06:24.017Z,98305.38
2023-04-19T15:08:50.221Z,98283.16
2023-04-19T15:11:16.432Z,98337.47
2023-04-19T15:13:42.628Z,98610.19
2023-04-19T15:16:08.914Z,98692.41
2023-04-19T15:18:35.419Z,98603.66
2023-04-19T15:21:04.893Z,98486.03
2023-04-19T15:23:31.107Z,98401.31
2023-04-19T15:25:57.324Z,98715.72
2023-04-19T15:28:23.903Z,98618.72
2023-04-19T15:30:59.876Z,98539.47
2023-04-19T15:33:26.079Z,98391.03
2023-04-19T15:35:52.506Z,98605.38
2023-04-19T15:38:18.719Z,98772.28
2023-04-19T15:40:44.924Z,98887.97
2023-04-19T15:43:11.130Z,98770.31
2023-04-19T15:45:37.341Z,98733.69
2023-04-19T15:48:03.631Z,98754.94
2023-04-19T15:50:29.946Z,98871.53
2023-04-19T15:52:56.196Z,98877.13
2023-04-19T15:55:22.394Z,99065.94
2023-04-19T15:57:48.623Z,99124.38
2023-04-19T16:00:15.342Z,98918.50
2023-04-19T16:02:41.797Z,99112.69
2023-04-19T16:05:08.269Z,98948.69
2023-04-19T16:07:34.494Z,99147.00
2023-04-19T16:10:00.685Z,99129.94
2023-04-19T16:12:27.076Z,99381.69
2023-04-19T16:14:53.282Z,99498.97
2023-04-19T16:17:19.512Z,99604.56
2023-04-19T16:19:45.716Z,99473.22
2023-04-19T16:22:11.932Z,99450.03
2023-04-19T16:24:38.147Z,99539.16
2023-04-19T16:27:04.396Z,99578.72
2023-04-19T16:29:30.645Z,99530.00
2023-04-19T16:31:56.961Z,99632.38
2023-04-19T16:34:23.202Z,99697.75
2023-04-19T16:36:49.408Z,99581.84
2023-04-19T16:39:15.993Z,99533.91
2023-04-19T16:41:42.432Z,99535.44
2023-04-19T16:44:08.639Z,99642.56
2023-04-19T16:46:34.923Z,99576.13
2023-04-19T16:49:01.233Z,99692.59
2023-04-19T16:51:27.446Z,99662.38
2023-04-19T16:53:53.776Z,99793.38
2023-04-19T16:56:19.984Z,99951.75
2023-04-19T16:58:46.273Z,99916.50
2023-04-19T17:01:12.931Z,99965.69
2023-04-19T17:03:39.352Z,99935.69
2023-04-19T17:06:05.944Z,100001.78
2023-04-19T17:08:32.356Z,100050.91
2023-04-19T17:10:58.573Z,100052.91
2023-04-19T17:13:24.769Z,100105.22
2023-04-19T17:15:51.027Z,100164.97
2023-04-19T17:18:17.270Z,100085.84
2023-04-19T17:20:43.477Z,99800.38
2023-04-19T17:23:09.674Z,99841.78
2023-04-19T17:25:35.884Z,99891.41
2023-04-19T17:28:02.103Z,99961.41
2023-04-19T17:30:28.303Z,99815.44
2023-04-19T17:32:54.607Z,99680.41
2023-04-19T17:35:20.822Z,99649.16
2023-04-19T17:37:47.049Z,99689.50
2023-04-19T17:40:13.266Z,99634.31
2023-04-19T17:42:39.504Z,99657.50
2023-04-19T17:45:05.909Z,99679.59
2023-04-19T17:47:32.124Z,99579.16
2023-04-19T17:50:08.145Z,99492.22
2023-04-19T17:52:34.592Z,99623.94
2023-04-19T17:55:00.788Z,99548.72
2023-04-19T17:57:26.993Z,99602.31
2023-04-19T17:59:53.234Z,99567.47
2023-04-19T18:02:19.564Z,99493.53
2023-04-19T18:04:46.629Z,99469.03
2023-04-19T18:07:12.893Z,99429.44
2023-04-19T18:09:39.104Z,99391.19
2023-04-19T18:12:05.378Z,99249.25
2023-04-19T18:14:31.838Z,99258.94
2023-04-19T18:16:58.070Z,99323.50
2023-04-19T18:19:24.261Z,99394.34
2023-04-19T18:21:50.470Z,99401.84
2023-04-19T18:24:16.677Z,99433.88
2023-04-19T18:26:42.911Z,99545.53
2023-04-19T18:29:09.346Z,99633.03
2023-04-19T18:31:35.599Z,99697.81
2023-04-19T18:34:01.831Z,99828.75
2023-04-19T18:36:28.138Z,100007.25
2023-04-19T18:38:54.679Z,100259.84
2023-04-19T18:41:20.991Z,100632.22
2023-04-19T18:44:00.783Z,101007.91
2023-04-19T18:46:33.385Z,101567.22
2023-04-19T18:48:59.611Z,101878.38
2023-04-19T18:51:25.822Z,101987.56
2023-04-19T18:53:52.048Z,102042.25
2023-04-19T18:56:19.106Z,102027.47
2023-04-19T18:58:45.455Z,102041.69
2023-04-19T19:01:11.674Z,102009.69
2023-04-19T19:04:06.180Z,101909.94
2023-04-19T19:06:24.439Z,101747.88
2023-04-19T19:08:50.742Z,101661.94
2023-04-19T19:11:47.186Z,101606.09
2023-04-19T19:14:03.109Z,101748.16
2023-04-19T19:16:31.033Z,101873.13
2023-04-19T19:18:57.434Z,102001.19
2023-04-19T19:21:23.648Z,102071.28
2023-04-19T19:23:49.854Z,102100.69
2023-04-19T19:26:16.065Z,102100.25
2023-04-19T19:28:42.275Z,102097.66
2023-04-19T19:31:08.880Z,102061.78
2023-04-19T19:33:35.121Z,102047.59
2023-04-19T19:36:01.331Z,102006.47
2023-04-19T19:38:27.541Z,101964.84
2023-04-19T19:41:34.745Z,101909.00
2023-04-19T19:43:39.950Z,101794.97
2023-04-19T19:46:08.083Z,101724.53
2023-04-19T19:48:40.736Z,101623.50
2023-04-19T19:53:48.335Z,101490.53
2023-04-19T19:56:21.440Z,101463.56
2023-04-19T19:58:51.448Z,101445.94
2023-04-19T20:01:18.613Z,101358.06
2023-04-19T20:03:47.441Z,101268.78
2023-04-19T20:06:45.280Z,101212.88
2023-04-19T20:09:03.509Z,101065.50
2023-04-19T20:11:29.996Z,101011.78
2023-04-19T20:13:56.673Z,100973.00
2023-04-19T20:16:22.931Z,100925.38
2023-04-19T20:18:49.291Z,100910.78
2023-04-19T20:21:16.631Z,100899.97
2023-04-19T20:23:46.076Z,100881.41
2023-04-19T20:26:13.834Z,100866.59
2023-04-19T20:28:41.068Z,100808.56
2023-04-19T20:31:11.546Z,100761.56
2023-04-19T20:33:37.843Z,100615.09
2023-04-19T20:36:06.444Z,100552.97
2023-04-19T20:38:33.219Z,100379.66
2023-04-19T20:41:04.765Z,100306.41
2023-04-19T20:43:36.442Z,100305.22
2023-04-19T20:46:02.739Z,100241.34
2023-04-19T20:48:29.266Z,100131.91
2023-04-19T20:51:03.103Z,100119.94
2023-04-19T20:53:29.357Z,100212.63
2023-04-19T20:55:55.552Z,100381.47
2023-04-19T20:58:21.760Z,100677.25
2023-04-19T21:00:48.853Z,100771.09
2023-04-19T21:03:15.279Z,100892.59
2023-04-19T21:05:41.741Z,100993.88
2023-04-19T21:08:08.265Z,100977.25
2023-04-19T21:10:34.502Z,101044.22
2023-04-19T21:13:02.179Z,101159.72
2023-04-19T21:15:28.435Z,101069.88
2023-04-19T21:17:54.711Z,101170.94
2023-04-19T21:20:21.015Z,101219.06
2023-04-19T21:22:47.232Z,101163.53
2023-04-19T21:25:13.513Z,101125.59
2023-04-19T21:27:40.282Z,101123.78
2023-04-19T21:30:09.502Z,101200.09
2023-04-19T21:32:36.033Z,101120.41
2023-04-19T21:35:06.562Z,101058.25
2023-04-19T21:37:33.002Z,101043.66
2023-04-19T21:40:01.547Z,100990.31
2023-04-19T21:42:29.272Z,100987.94
2023-04-19T21:44:55.504Z,100988.94
2023-04-19T21:47:33.572Z,100889.84
2023-04-19T21:50:00.090Z,100982.78
2023-04-19T21:52:29.314Z,100867.47
2023-04-19T21:54:55.918Z,100856.72
2023-04-19T21:57:22.192Z,100848.94
2023-04-19T21:59:48.802Z,100868.94
2023-04-19T22:02:15.125Z,100900.31
2023-04-19T22:04:41.546Z,100866.34
2023-04-19T22:07:07.840Z,100908.47
2023-04-19T22:09:35.494Z,100986.19
2023-04-19T22:12:01.823Z,100938.66
2023-04-19T22:14:28.224Z,100962.81
2023-04-19T22:16:54.512Z,100933.47
2023-04-19T22:19:20.834Z,100883.94
2023-04-19T22:21:47.097Z,100841.97
2023-04-19T22:24:15.123Z,100865.34
2023-04-19T22:26:41.425Z,100818.22
2023-04-19T22:29:07.661Z,100827.63
2023-04-19T22:31:33.922Z,100878.97
2023-04-19T22:34:00.645Z,100901.09
2023-04-19T22:36:26.861Z,100903.78
2023-04-19T22:38:53.106Z,100834.81
2023-04-19T22:41:19.329Z,100838.66
2023-04-19T22:43:45.568Z,100864.63
2023-04-19T22:46:12.541Z,100937.13
2023-04-19T22:48:43.253Z,100894.19
2023-04-19T22:51:16.939Z,100943.19
2023-04-19T22:53:43.496Z,100945.34
2023-04-19T22:56:11.114Z,100940.97
2023-04-19T22:58:38.453Z,100917.97
2023-04-19T23:01:05.896Z,100956.31
2023-04-19T23:03:35.389Z,101043.59
2023-04-19T23:06:16.449Z,101015.63
2023-04-19T23:08:54.326Z,101013.25
2023-04-19T23:11:20.703Z,101055.34
2023-04-19T23:13:47.000Z,101086.91
2023-04-19T23:16:20.315Z,101141.41
2023-04-19T23:19:07.318Z,101199.09
2023-04-19T23:21:42.872Z,101209.03
2023-04-19T23:24:09.287Z,101133.63
2023-04-19T23:26:35.535Z,101164.75
2023-04-19T23:29:01.839Z,101222.84
2023-04-19T23:31:40.431Z,101270.50
2023-04-19T23:34:06.980Z,101295.44
2023-04-19T23:36:34.537Z,101327.19
2023-04-19T23:39:04.129Z,101338.53
2023-04-19T23:41:36.106Z,101315.78
2023-04-19T23:44:03.694Z,101361.81
2023-04-19T23:46:29.947Z,101382.50
2023-04-19T23:48:56.235Z,101403.69
2023-04-19T23:51:22.474Z,101395.09
2023-04-19T23:53:52.080Z,101350.81
2023-04-19T23:56:18.275Z,101367.16
2023-04-19T23:58:44.479Z,101372.72
